Terminal Aerodrome Forecast
Issued by NWS

Home | Current Version | Previous Version | Text Only | Print | Product List | Glossary On
Versions: 1 2 3 4 5 6 7 8 9 10 11 12 13 14 15 16 17 18 19 20 21 22 23 24 25 26 27 28 29
000
FTUS43 KDVN 251151
TAFCID
TAF
KCID 251151Z 2512/2612 22010KT P6SM SCT015 BKN035
      TEMPO 2512/2515 4SM -SHRA BKN012
     FM251600 23016G24KT P6SM SCT025 BKN040
     FM252300 22012KT P6SM SCT040 BKN250
     FM260400 19008KT P6SM BKN050 PROB30 2606/2612 4SM -TSRA BR
      BKN025CB=

USA.gov is the U.S. government's official web portal to all federal, state and local government web resources and services.